Time;durP1;ratioP1;P1;durP2;ratioP2;P2;SDS_P1;SDS_P2;PMS_P1;PMS_P2;Temp;Humidity;BMP_temperature;BMP_pressure;BME280_temperature;BME280_humidity;BME280_pressure;Samples;Min_cycle;Max_cycle;Signal;HPM_P1;HPM_P2
2021/01/06 00:01:54;;;;;;;10.23;7.60;;;;;;;5.44;79.93;94907.41;4995536;28;20816;-83
2021/01/06 00:04:21;;;;;;;17.03;9.63;;;;;;;5.38;79.45;94894.78;4996598;28;20440;-84
2021/01/06 00:06:47;;;;;;;16.43;10.23;;;;;;;5.42;79.20;94894.50;4996482;28;20452;-84
2021/01/06 00:09:14;;;;;;;14.87;9.03;;;;;;;5.39;80.23;94899.88;4996386;28;20452;-83
2021/01/06 00:11:41;;;;;;;16.43;7.70;;;;;;;5.37;79.76;94912.16;4995643;28;20820;-83
2021/01/06 00:14:11;;;;;;;15.30;8.30;;;;;;;5.46;80.57;94910.72;4996951;28;20801;-84
2021/01/06 00:16:38;;;;;;;12.67;8.50;;;;;;;5.43;79.43;94903.97;4996781;28;20511;-84
2021/01/06 00:19:06;;;;;;;12.43;7.67;;;;;;;5.51;79.52;94909.53;4996697;28;20452;-84
2021/01/06 00:21:32;;;;;;;10.30;7.50;;;;;;;5.62;80.04;94918.41;4963528;28;20804;-85
2021/01/06 00:24:01;;;;;;;8.60;6.73;;;;;;;5.69;78.61;94915.28;4996131;28;20448;-84
2021/01/06 00:26:31;;;;;;;11.13;6.53;;;;;;;5.77;78.59;94931.22;4995265;28;20445;-82
2021/01/06 00:28:58;;;;;;;19.13;11.60;;;;;;;5.67;78.42;94929.34;4994613;28;20447;-82
2021/01/06 00:31:24;;;;;;;21.23;14.10;;;;;;;5.50;79.29;94930.44;4994178;28;20451;-82
2021/01/06 00:33:50;;;;;;;31.60;16.97;;;;;;;5.29;79.43;94932.66;4994005;28;20998;-83
2021/01/06 00:36:20;;;;;;;22.57;14.87;;;;;;;5.05;80.22;94947.19;4994046;28;20483;-82
2021/01/06 00:38:47;;;;;;;27.87;17.10;;;;;;;5.10;80.87;94939.94;4993969;28;20994;-83
2021/01/06 00:41:13;;;;;;;34.00;17.97;;;;;;;5.19;80.54;94947.13;4993821;28;20482;-82
2021/01/06 00:43:40;;;;;;;30.93;16.60;;;;;;;5.15;80.42;94948.28;4993828;28;20973;-83
2021/01/06 00:46:06;;;;;;;24.83;17.00;;;;;;;5.10;81.46;94960.72;4994220;28;20483;-84
2021/01/06 00:48:32;;;;;;;36.93;19.20;;;;;;;4.98;81.18;94957.97;4993888;28;20444;-83
2021/01/06 00:50:59;;;;;;;32.60;17.30;;;;;;;4.49;83.56;94962.72;4993923;28;20444;-83
2021/01/06 00:53:27;;;;;;;31.23;20.03;;;;;;;4.57;84.43;94962.25;4993715;28;20460;-83
2021/01/06 00:55:54;;;;;;;39.90;19.03;;;;;;;4.44;84.54;94963.91;4993577;28;20455;-83
2021/01/06 00:58:22;;;;;;;28.80;16.70;;;;;;;4.53;85.32;94968.56;4959557;28;20452;-83
2021/01/06 01:00:48;;;;;;;32.70;17.53;;;;;;;4.62;84.88;94981.00;4993692;28;20448;-83
2021/01/06 01:03:15;;;;;;;29.40;17.50;;;;;;;4.68;85.02;94975.44;4993727;28;20455;-82
2021/01/06 01:05:42;;;;;;;30.40;17.37;;;;;;;4.72;85.01;94966.53;4959539;28;20455;-82
2021/01/06 01:08:10;;;;;;;27.30;17.80;;;;;;;4.79;84.30;94967.81;4975735;28;20440;-83
2021/01/06 01:10:39;;;;;;;29.43;16.57;;;;;;;4.79;84.31;94967.81;4993637;28;20444;-83
2021/01/06 01:13:08;;;;;;;24.20;15.40;;;;;;;4.82;84.80;94956.41;4993454;28;20452;-83
2021/01/06 01:15:37;;;;;;;30.73;18.03;;;;;;;4.77;85.05;94959.28;4993852;28;20440;-83
2021/01/06 01:18:05;;;;;;;30.43;18.20;;;;;;;4.84;84.27;94946.75;4993789;28;20484;-83
2021/01/06 01:20:32;;;;;;;38.30;21.50;;;;;;;4.89;84.43;94949.88;4993551;28;20527;-83
2021/01/06 01:22:58;;;;;;;57.00;27.30;;;;;;;4.96;83.95;94954.63;4993346;28;20868;-83
2021/01/06 01:25:27;;;;;;;43.63;20.80;;;;;;;5.00;84.16;94949.25;4993597;28;20435;-83
2021/01/06 01:27:55;;;;;;;26.87;16.47;;;;;;;4.90;84.35;94947.19;4993712;28;20464;-83
2021/01/06 01:30:23;;;;;;;25.07;13.87;;;;;;;4.77;84.37;94935.06;4993623;28;20471;-83
2021/01/06 01:32:50;;;;;;;23.30;12.10;;;;;;;4.68;85.21;94920.88;4994053;28;20498;-83
2021/01/06 01:35:21;;;;;;;23.30;12.10;;;;;;;4.65;85.07;94939.25;4993824;28;20454;-83
2021/01/06 01:57:58;;;;;;;29.43;17.23;;;;;;;4.62;85.50;94931.59;5111259;27;20549;-81
2021/01/06 02:00:27;;;;;;;31.27;16.70;;;;;;;4.66;85.96;94936.56;5058963;28;20443;-80
2021/01/06 02:03:06;;;;;;;27.90;15.20;;;;;;;4.71;85.64;94925.03;5110932;28;20443;-80
2021/01/06 02:05:37;;;;;;;22.13;14.60;;;;;;;4.69;85.60;94919.94;5110820;28;20478;-80
2021/01/06 02:08:10;;;;;;;32.30;17.80;;;;;;;4.80;85.28;94934.88;5110825;28;20439;-81
2021/01/06 02:10:41;;;;;;;27.63;15.70;;;;;;;4.86;85.14;94924.91;5110959;28;20446;-81
2021/01/06 02:13:17;;;;;;;25.17;16.30;;;;;;;4.80;84.98;94924.47;5110729;28;20438;-80
2021/01/06 02:15:47;;;;;;;25.47;15.97;;;;;;;4.82;85.41;94940.81;5110694;28;20521;-81
2021/01/06 02:18:15;;;;;;;26.17;15.27;;;;;;;4.87;84.85;94946.53;5110645;28;20443;-81
2021/01/06 02:20:41;;;;;;;20.90;14.07;;;;;;;4.86;83.84;94934.47;5110615;28;20438;-81
2021/01/06 02:23:08;;;;;;;23.70;16.63;;;;;;;4.80;85.37;94940.91;5108646;28;20435;-81
2021/01/06 02:25:39;;;;;;;34.47;15.23;;;;;;;4.83;85.13;94940.69;5110276;28;21066;-80
2021/01/06 02:28:06;;;;;;;21.93;14.40;;;;;;;4.88;85.11;94943.84;5110610;28;20522;-81
2021/01/06 02:30:33;;;;;;;25.67;14.13;;;;;;;4.83;85.50;94932.06;5110670;28;20442;-81
2021/01/06 02:32:59;;;;;;;29.77;14.17;;;;;;;4.63;85.84;94930.72;5110319;28;20857;-81
2021/01/06 02:35:26;;;;;;;24.27;14.23;;;;;;;4.59;86.45;94937.00;5110602;28;20450;-81
2021/01/06 02:37:52;;;;;;;29.13;14.53;;;;;;;4.63;87.49;94930.72;5110137;28;20438;-81
2021/01/06 02:40:19;;;;;;;29.40;14.47;;;;;;;4.72;86.62;94909.34;5074356;28;20927;-81
2021/01/06 02:42:47;;;;;;;28.37;15.10;;;;;;;4.77;86.65;94922.88;5110381;28;20442;-81
2021/01/06 02:45:16;;;;;;;25.57;15.60;;;;;;;4.82;86.71;94920.00;5074044;28;20439;-81
2021/01/06 02:47:47;;;;;;;21.53;14.27;;;;;;;4.95;85.68;94919.16;5109934;28;20930;-81
2021/01/06 02:50:15;;;;;;;21.17;13.33;;;;;;;4.97;85.32;94932.06;5110008;28;20976;-81
2021/01/06 02:52:48;;;;;;;27.23;13.30;;;;;;;4.98;84.76;94916.38;5109844;28;21014;-81
2021/01/06 02:55:16;;;;;;;21.10;13.57;;;;;;;4.97;85.30;94926.88;5109821;28;20443;-81
2021/01/06 02:57:44;;;;;;;23.10;12.70;;;;;;;4.86;85.19;94927.50;5102848;28;20801;-81
2021/01/06 03:00:15;;;;;;;28.50;12.77;;;;;;;4.87;85.51;94920.53;5096182;28;20447;-81
2021/01/06 03:02:41;;;;;;;20.63;12.70;;;;;;;4.95;85.06;94913.13;5095960;28;20436;-81
2021/01/06 03:05:16;;;;;;;27.47;13.47;;;;;;;4.73;85.33;94905.81;5096287;28;20463;-80
2021/01/06 03:07:43;;;;;;;19.43;12.23;;;;;;;4.88;85.36;94898.81;5096286;28;20450;-81
2021/01/06 03:10:15;;;;;;;24.00;11.90;;;;;;;4.96;85.36;94905.22;5044010;28;20945;-81
2021/01/06 03:12:41;;;;;;;16.03;10.83;;;;;;;5.03;85.11;94899.63;5096160;28;20447;-80
2021/01/06 03:15:10;;;;;;;20.90;13.83;;;;;;;5.07;84.30;94895.91;5077350;28;20453;-81
2021/01/06 03:17:37;;;;;;;22.03;13.00;;;;;;;5.09;84.06;94888.84;5077027;28;20485;-81
2021/01/06 03:20:08;;;;;;;27.23;14.60;;;;;;;5.15;85.03;94886.69;5095631;28;20439;-81
2021/01/06 03:22:39;;;;;;;30.20;15.93;;;;;;;5.12;84.31;94897.28;5095986;28;20808;-81
2021/01/06 03:25:09;;;;;;;25.93;15.63;;;;;;;5.12;83.94;94901.66;5095675;28;20809;-81
2021/01/06 03:27:37;;;;;;;24.47;14.60;;;;;;;5.15;84.26;94881.47;5095986;28;20478;-82
2021/01/06 03:30:08;;;;;;;19.87;13.90;;;;;;;5.18;84.58;94902.09;5095576;28;20448;-81
2021/01/06 03:32:45;;;;;;;21.93;12.50;;;;;;;5.21;83.63;94901.09;5095475;28;20443;-81
2021/01/06 03:35:20;;;;;;;20.70;12.33;;;;;;;5.25;83.12;94903.38;5077150;28;20922;-80
2021/01/06 03:37:53;;;;;;;23.60;14.63;;;;;;;5.22;83.50;94902.75;5095576;28;20960;-81
2021/01/06 03:40:37;;;;;;;24.03;15.00;;;;;;;5.25;83.83;94902.56;5095638;28;20435;-80
2021/01/06 03:43:05;;;;;;;22.33;14.03;;;;;;;5.26;83.19;94891.22;5095396;28;20513;-81
2021/01/06 03:45:36;;;;;;;23.57;15.00;;;;;;;5.31;82.90;94907.38;5095643;28;20573;-81
2021/01/06 03:48:11;;;;;;;25.83;16.30;;;;;;;5.31;82.70;94891.75;5095342;28;20454;-81
2021/01/06 03:50:41;;;;;;;25.33;16.10;;;;;;;5.13;83.38;94885.13;5043763;28;20438;-81
2021/01/06 03:53:20;;;;;;;24.43;15.70;;;;;;;5.13;84.18;94895.50;5095258;28;20451;-81
2021/01/06 03:55:51;;;;;;;31.03;19.90;;;;;;;4.91;85.04;94883.03;5095080;28;20486;-82
2021/01/06 03:58:39;;;;;;;38.50;19.97;;;;;;;4.94;84.88;94909.69;5043301;28;20773;-81
2021/01/06 04:01:19;;;;;;;30.17;16.07;;;;;;;4.92;85.30;94895.97;5095054;28;20447;-81
2021/01/06 04:03:55;;;;;;;27.97;14.33;;;;;;;4.82;86.06;94902.63;5042883;28;20432;-81
2021/01/06 04:06:25;;;;;;;25.77;15.30;;;;;;;4.89;86.42;94916.91;5094728;28;20490;-81
2021/01/06 04:08:56;;;;;;;28.93;19.13;;;;;;;4.88;86.40;94915.25;5094205;28;20946;-81
2021/01/06 04:11:27;;;;;;;51.63;28.07;;;;;;;4.98;85.33;94905.97;5095067;28;20451;-82
2021/01/06 04:13:53;;;;;;;33.30;19.17;;;;;;;5.04;85.25;94919.50;5094552;28;20440;-82
2021/01/06 04:16:22;;;;;;;20.80;14.37;;;;;;;5.04;85.26;94924.72;5095163;28;20862;-82
2021/01/06 04:18:49;;;;;;;20.47;14.93;;;;;;;5.08;85.16;94927.03;5094870;28;20776;-81
2021/01/06 04:21:16;;;;;;;17.47;12.60;;;;;;;5.06;85.21;94917.66;5025862;28;20431;-81
2021/01/06 04:23:42;;;;;;;19.87;12.77;;;;;;;5.06;84.44;94939.28;5095050;28;21004;-82
2021/01/06 04:26:11;;;;;;;25.37;13.37;;;;;;;5.12;83.94;94925.06;5094642;28;20895;-82
2021/01/06 04:28:37;;;;;;;23.80;13.13;;;;;;;5.15;84.21;94943.06;5094629;28;20439;-82
2021/01/06 04:31:06;;;;;;;15.63;12.07;;;;;;;5.18;84.85;94948.06;5075815;28;20451;-81
2021/01/06 04:33:36;;;;;;;14.90;12.93;;;;;;;5.07;84.24;94925.34;5094783;28;20516;-83
2021/01/06 04:36:05;;;;;;;21.23;12.90;;;;;;;5.08;84.53;94936.59;5101169;28;20443;-79
2021/01/06 04:38:34;;;;;;;40.53;22.37;;;;;;;5.08;84.89;94914.00;5099513;28;20439;-81
2021/01/06 04:41:20;;;;;;;52.60;27.20;;;;;;;5.05;84.05;94948.03;5094631;28;20444;-82
2021/01/06 04:43:52;;;;;;;25.43;15.63;;;;;;;5.05;85.08;94948.03;5094502;28;20535;-82
2021/01/06 04:46:29;;;;;;;23.33;11.80;;;;;;;5.09;84.91;94928.69;5094396;28;20479;-82
2021/01/06 04:49:03;;;;;;;20.73;12.33;;;;;;;5.13;85.26;94937.13;5094049;28;20926;-81
2021/01/06 04:51:56;;;;;;;46.93;22.93;;;;;;;4.92;84.99;94937.56;5094078;28;20444;-82
2021/01/06 04:54:48;;;;;;;23.83;14.40;;;;;;;4.91;86.46;94935.84;5094054;28;20450;-81
2021/01/06 04:57:39;;;;;;;20.57;12.87;;;;;;;4.41;88.19;94918.19;5094270;28;20875;-82
2021/01/06 05:00:27;;;;;;;65.77;27.20;;;;;;;4.37;89.27;94932.28;5094051;28;21011;-82
2021/01/06 05:03:32;;;;;;;39.07;20.00;;;;;;;4.45;88.99;94917.06;5093861;28;20501;-81
2021/01/06 05:06:35;;;;;;;46.37;23.17;;;;;;;4.06;90.44;94904.72;5031603;28;20485;-82
2021/01/06 05:09:13;;;;;;;20.87;13.53;;;;;;;4.16;90.68;94941.34;5032102;28;20450;-82
2021/01/06 05:11:50;;;;;;;19.00;12.10;;;;;;;4.27;91.31;94937.16;5031469;28;20466;-83
2021/01/06 05:14:19;;;;;;;24.27;13.87;;;;;;;4.25;89.74;94915.66;5031652;28;20449;-82
2021/01/06 05:16:48;;;;;;;19.93;14.20;;;;;;;4.16;90.75;94905.00;4982266;28;20441;-82
2021/01/06 05:19:18;;;;;;;29.80;17.07;;;;;;;4.34;91.19;94930.72;5031143;28;20446;-82
2021/01/06 05:21:45;;;;;;;24.70;16.97;;;;;;;4.48;90.22;94916.03;5031081;28;20536;-82
2021/01/06 05:24:20;;;;;;;24.73;16.33;;;;;;;4.58;90.12;94910.19;5031433;28;20438;-82
2021/01/06 05:26:50;;;;;;;29.70;16.63;;;;;;;4.66;89.39;94914.94;5031568;28;20589;-83
2021/01/06 05:29:27;;;;;;;30.33;18.23;;;;;;;4.45;90.14;94913.63;5031474;28;20450;-83
2021/01/06 05:31:53;;;;;;;25.63;18.00;;;;;;;4.55;90.54;94925.13;5031334;28;20441;-83
2021/01/06 05:34:20;;;;;;;34.83;20.23;;;;;;;4.59;89.54;94921.41;5031548;28;20457;-82
2021/01/06 05:36:47;;;;;;;48.37;25.50;;;;;;;4.38;90.28;94913.16;5031441;28;20813;-82
2021/01/06 05:39:22;;;;;;;41.43;24.70;;;;;;;4.44;91.23;94946.56;5031056;28;20450;-81
2021/01/06 05:41:51;;;;;;;43.23;23.57;;;;;;;4.52;90.50;94938.31;5051932;28;20451;-82
2021/01/06 05:44:18;;;;;;;56.13;25.73;;;;;;;4.61;90.98;94942.94;5093504;28;20475;-83
2021/01/06 05:46:46;;;;;;;34.77;21.27;;;;;;;4.72;90.97;94934.50;5093840;28;20490;-82
2021/01/06 05:49:21;;;;;;;42.37;21.43;;;;;;;4.77;89.13;94946.28;5093402;28;20447;-82
2021/01/06 05:51:54;;;;;;;60.80;24.87;;;;;;;4.63;89.48;94920.31;5093427;28;20465;-83
2021/01/06 05:54:27;;;;;;;65.50;29.20;;;;;;;4.66;89.89;94940.91;5093094;28;20454;-82
2021/01/06 05:57:09;;;;;;;36.47;21.00;;;;;;;4.75;89.33;94958.53;5093371;28;21045;-87
2021/01/06 06:00:11;;;;;;;37.97;18.00;;;;;;;4.58;89.67;94946.56;5092899;28;20447;-80
2021/01/06 06:02:46;;;;;;;31.73;17.83;;;;;;;4.80;91.39;94958.25;5010880;28;20445;-80
2021/01/06 06:05:38;;;;;;;34.40;21.30;;;;;;;5.00;92.69;94962.25;5010987;28;20438;-80
2021/01/06 06:08:21;;;;;;;37.73;17.47;;;;;;;5.01;88.55;94958.72;5010879;28;20443;-81
2021/01/06 06:11:10;;;;;;;36.67;18.43;;;;;;;5.04;89.36;94974.97;5011076;28;20446;-80
2021/01/06 06:14:04;;;;;;;33.00;16.23;;;;;;;5.04;87.99;94955.91;5010939;28;20443;-81
2021/01/06 06:16:40;;;;;;;58.67;24.27;;;;;;;4.78;88.24;94945.34;5010610;28;20458;-80
2021/01/06 06:19:32;;;;;;;39.90;21.87;;;;;;;4.92;89.24;94967.94;5010753;28;20517;-80
2021/01/06 06:22:09;;;;;;;52.13;20.77;;;;;;;4.97;88.86;94953.69;5010742;28;20451;-80
2021/01/06 06:24:42;;;;;;;37.37;20.10;;;;;;;5.08;88.95;94971.22;5010634;28;20497;-78
2021/01/06 06:27:37;;;;;;;36.77;17.30;;;;;;;5.14;88.11;94947.44;5008104;28;20486;-79
2021/01/06 06:30:22;;;;;;;31.27;16.40;;;;;;;5.17;87.15;94941.19;4932737;29;20466;-80
2021/01/06 06:32:51;;;;;;;22.17;14.87;;;;;;;5.21;87.58;94955.72;4933582;29;20451;-79
2021/01/06 06:35:22;;;;;;;25.10;13.80;;;;;;;5.22;86.33;94957.38;4936682;29;20466;-80
2021/01/06 06:37:51;;;;;;;18.30;14.40;;;;;;;5.27;86.55;94968.31;4936173;29;20466;-79
2021/01/06 06:40:18;;;;;;;38.00;18.23;;;;;;;5.17;86.33;94967.22;4999969;28;20836;-80
2021/01/06 06:42:54;;;;;;;61.73;31.53;;;;;;;4.85;88.66;94970.03;4981080;28;20434;-80
2021/01/06 06:45:56;;;;;;;47.00;27.83;;;;;;;4.59;89.05;94965.59;4982190;28;20478;-80
2021/01/06 06:48:38;;;;;;;56.37;29.77;;;;;;;4.63;90.41;94986.13;5012689;28;20447;-80
2021/01/06 06:51:12;;;;;;;54.23;29.33;;;;;;;4.66;90.52;94966.91;5013873;28;20896;-80
2021/01/06 06:53:46;;;;;;;47.67;25.77;;;;;;;4.68;89.24;94975.44;4980950;28;20443;-79
2021/01/06 06:56:21;;;;;;;44.70;22.30;;;;;;;4.38;91.41;94998.91;5013254;28;21029;-79
2021/01/06 06:58:53;;;;;;;62.63;26.53;;;;;;;4.28;91.73;95002.94;4964959;28;20485;-80
2021/01/06 07:01:24;;;;;;;56.40;25.33;;;;;;;4.27;92.67;95012.50;5010132;28;20509;-85
2021/01/06 07:04:04;;;;;;;49.93;24.27;;;;;;;4.43;91.60;95016.81;5013156;28;20442;-80
2021/01/06 07:06:31;;;;;;;42.83;22.87;;;;;;;4.59;91.93;95012.34;5024630;28;20941;-80
2021/01/06 07:09:00;;;;;;;50.87;27.27;;;;;;;4.55;91.71;95010.88;5075121;28;20448;-80
2021/01/06 07:11:32;;;;;;;41.73;23.63;;;;;;;4.63;91.75;95014.72;5075489;28;20436;-82
2021/01/06 07:14:04;;;;;;;43.33;24.53;;;;;;;4.86;92.29;95012.47;5075627;28;20535;-82
2021/01/06 07:16:46;;;;;;;46.03;25.60;;;;;;;4.95;90.97;94999.75;5075251;28;20554;-81
2021/01/06 07:19:20;;;;;;;36.67;24.17;;;;;;;5.11;89.93;94991.00;5075361;28;20476;-80
2021/01/06 07:21:52;;;;;;;45.03;22.07;;;;;;;5.24;89.20;94989.34;5075170;28;20471;-80
2021/01/06 07:24:21;;;;;;;42.40;22.87;;;;;;;5.41;90.16;94996.91;5075019;28;20896;-81
2021/01/06 07:26:51;;;;;;;34.43;20.90;;;;;;;5.56;89.38;95000.31;5075488;28;20480;-80
2021/01/06 07:29:20;;;;;;;42.40;20.30;;;;;;;5.71;87.29;95008.91;5056461;28;20531;-81
2021/01/06 07:31:56;;;;;;;36.63;23.97;;;;;;;5.82;87.03;94999.50;5087320;28;20434;-80
2021/01/06 07:34:30;;;;;;;83.57;32.57;;;;;;;5.99;86.09;94997.56;5085338;28;20486;-78
2021/01/06 07:37:01;;;;;;;73.17;33.03;;;;;;;6.14;85.58;95010.44;5100072;28;20454;-79
2021/01/06 07:39:31;;;;;;;60.03;29.43;;;;;;;6.25;85.14;95014.13;5057425;28;20452;-80
2021/01/06 07:42:02;;;;;;;70.97;38.37;;;;;;;6.37;85.50;95013.31;5075009;28;20472;-79
2021/01/06 07:44:31;;;;;;;138.10;59.63;;;;;;;6.53;83.79;95024.38;5056522;28;20444;-80
2021/01/06 07:47:09;;;;;;;106.03;48.77;;;;;;;6.71;83.76;95020.53;5084896;28;20483;-81
2021/01/06 07:49:45;;;;;;;118.80;51.80;;;;;;;6.89;82.38;95022.81;5093465;28;20488;-81
2021/01/06 07:52:46;;;;;;;79.40;40.10;;;;;;;7.01;81.38;95030.66;5095395;28;20442;-80
2021/01/06 07:55:26;;;;;;;76.43;43.77;;;;;;;7.04;79.45;95021.78;5072308;28;20947;-81
2021/01/06 07:57:57;;;;;;;101.33;43.83;;;;;;;7.05;79.12;95028.69;5072120;28;20502;-79
2021/01/06 08:00:30;;;;;;;71.33;40.40;;;;;;;6.98;80.60;95037.88;5072408;28;20443;-81
2021/01/06 08:03:06;;;;;;;64.40;32.70;;;;;;;6.84;81.23;95025.75;5072127;28;20444;-81
2021/01/06 08:05:34;;;;;;;49.43;28.17;;;;;;;6.91;80.63;95028.78;5072406;28;20452;-81
2021/01/06 08:08:07;;;;;;;45.87;25.60;;;;;;;7.01;81.90;95029.84;5072113;28;20476;-81
2021/01/06 08:10:36;;;;;;;45.73;23.90;;;;;;;7.03;80.34;95020.97;5055347;28;20445;-80
2021/01/06 08:13:12;;;;;;;38.53;23.97;;;;;;;7.10;79.92;95014.38;5055311;28;20440;-79
2021/01/06 08:15:44;;;;;;;31.80;18.80;;;;;;;7.22;79.70;95030.94;5071935;28;21028;-81
2021/01/06 08:18:20;;;;;;;44.10;26.17;;;;;;;7.33;78.17;95028.44;5071788;28;20507;-81
2021/01/06 08:21:00;;;;;;;36.03;23.13;;;;;;;7.35;77.93;95028.31;5072044;28;20445;-81
2021/01/06 08:23:45;;;;;;;35.50;21.37;;;;;;;7.38;77.42;95034.16;5071980;28;20453;-81
2021/01/06 08:26:18;;;;;;;40.50;23.73;;;;;;;7.45;77.80;95045.00;5071566;28;20995;-81
2021/01/06 08:28:44;;;;;;;33.27;22.00;;;;;;;7.66;78.06;95043.50;5078719;28;20454;-81
2021/01/06 08:31:17;;;;;;;34.83;20.47;;;;;;;7.88;77.19;95057.66;5094391;28;20448;-80
2021/01/06 08:33:48;;;;;;;30.43;20.50;;;;;;;7.92;75.88;95046.88;5094179;28;20448;-80
2021/01/06 08:36:22;;;;;;;24.10;15.50;;;;;;;7.86;74.44;95052.53;5058610;28;20446;-81
2021/01/06 08:38:48;;;;;;;43.50;20.10;;;;;;;7.84;73.98;95046.59;5093971;28;20443;-81
2021/01/06 08:41:17;;;;;;;30.27;17.67;;;;;;;7.70;75.00;95039.72;5058597;28;20856;-81
2021/01/06 08:43:44;;;;;;;33.30;23.30;;;;;;;7.72;75.50;95044.84;5093751;28;20848;-81
2021/01/06 08:46:21;;;;;;;35.10;21.50;;;;;;;8.16;78.50;95040.81;5092729;28;20471;-81
2021/01/06 08:48:48;;;;;;;30.10;20.20;;;;;;;8.15;74.92;95047.00;5093802;28;20444;-81
2021/01/06 08:51:17;;;;;;;41.43;24.77;;;;;;;8.23;74.16;95047.25;5093634;28;20448;-81
2021/01/06 08:53:45;;;;;;;55.63;24.47;;;;;;;8.29;75.56;95045.03;5093626;28;20486;-82
2021/01/06 08:56:22;;;;;;;34.63;22.13;;;;;;;8.35;73.85;95046.38;5093349;28;20483;-82
2021/01/06 08:58:51;;;;;;;42.30;22.50;;;;;;;8.32;72.29;95039.56;5093657;28;20944;-82
2021/01/06 09:01:31;;;;;;;56.43;23.10;;;;;;;8.33;72.87;95053.47;5058044;28;20920;-82
2021/01/06 09:04:09;;;;;;;32.23;19.30;;;;;;;8.25;73.24;95033.13;5093954;28;20452;-79
2021/01/06 09:06:48;;;;;;;51.30;22.00;;;;;;;8.24;73.87;95054.16;5093763;28;20572;-81
2021/01/06 09:09:33;;;;;;;30.03;18.00;;;;;;;8.15;73.27;95044.38;5093439;28;20931;-81
2021/01/06 09:11:59;;;;;;;38.63;20.98;;;;;;;8.13;73.03;95023.59;5093022;28;20503;-82
2021/01/06 09:14:33;;;;;;;36.63;21.33;;;;;;;8.16;72.75;95030.38;5091292;28;20198;-82
2021/01/06 09:17:13;;;;;;;44.57;23.70;;;;;;;8.16;73.62;95031.19;5093033;28;20448;-81
2021/01/06 09:19:45;;;;;;;47.17;27.00;;;;;;;8.19;74.45;95014.44;5091839;28;20436;-81
2021/01/06 09:22:14;;;;;;;46.50;26.80;;;;;;;8.24;74.90;95023.63;5093103;28;20461;-82
2021/01/06 09:24:43;;;;;;;43.77;25.23;;;;;;;8.31;74.30;95016.97;5092546;28;20827;-81
2021/01/06 09:27:33;;;;;;;49.10;27.90;;;;;;;8.37;72.47;95013.09;5057250;28;20500;-82
2021/01/06 09:30:03;;;;;;;37.73;22.30;;;;;;;8.41;71.89;95004.13;5093029;28;20457;-82
2021/01/06 09:32:34;;;;;;;34.73;21.00;;;;;;;8.41;71.72;95001.50;5092921;28;20437;-82
2021/01/06 09:35:06;;;;;;;36.33;19.43;;;;;;;8.51;71.53;95010.31;5092698;28;20440;-81
2021/01/06 09:37:36;;;;;;;39.60;24.27;;;;;;;8.62;72.63;95006.88;5093508;28;20774;-82
2021/01/06 09:40:08;;;;;;;39.60;24.70;;;;;;;8.75;72.09;94991.09;5093046;28;20445;-82
2021/01/06 09:42:37;;;;;;;31.87;18.93;;;;;;;8.83;71.69;94980.88;5092652;28;20471;-80
2021/01/06 09:45:05;;;;;;;25.20;18.10;;;;;;;9.03;71.04;94984.59;5092503;28;20452;-82
2021/01/06 09:47:37;;;;;;;32.60;18.60;;;;;;;9.20;70.70;94966.63;5092592;28;20485;-82
2021/01/06 09:50:17;;;;;;;41.23;24.10;;;;;;;9.38;70.30;94968.75;5093209;28;20446;-82
2021/01/06 09:52:47;;;;;;;36.47;21.97;;;;;;;9.56;70.82;94969.94;5092688;28;20488;-82
2021/01/06 09:55:16;;;;;;;49.67;23.60;;;;;;;9.75;70.89;94966.66;5092903;28;20445;-83
2021/01/06 09:57:43;;;;;;;31.67;17.83;;;;;;;9.89;68.80;94956.75;5093951;28;20469;-83
2021/01/06 10:00:36;;;;;;;41.23;17.13;;;;;;;10.06;68.71;94959.75;5057743;28;20885;-83
2021/01/06 10:03:04;;;;;;;31.63;18.50;;;;;;;10.19;68.90;94944.69;5093202;28;20453;-83
2021/01/06 10:05:44;;;;;;;26.50;16.20;;;;;;;10.21;67.75;94924.47;5092443;28;20942;-84
2021/01/06 10:08:20;;;;;;;32.13;16.53;;;;;;;10.37;67.25;94921.38;5094951;28;20516;-84
2021/01/06 10:10:50;;;;;;;121.67;30.77;;;;;;;11.04;100.00;94906.00;5097157;28;20453;-83
2021/01/06 10:13:32;;;;;;;45.03;19.92;;;;;;;12.81;97.33;94916.38;5095328;28;20443;-84
2021/01/06 10:16:06;;;;;;;27.90;15.50;;;;;;;13.21;72.08;94920.53;5096330;28;20440;-89
2021/01/06 10:18:45;;;;;;;26.63;16.03;;;;;;;13.76;72.46;94917.91;5096555;28;20621;-80
2021/01/06 10:21:18;;;;;;;19.57;13.50;;;;;;;14.41;63.59;94915.88;5062572;28;20452;-81
2021/01/06 10:24:18;;;;;;;24.90;14.20;;;;;;;14.13;56.71;94915.97;5060880;28;20435;-81
2021/01/06 10:27:01;;;;;;;24.83;14.53;;;;;;;13.39;55.08;94910.91;5096568;28;20522;-82
2021/01/06 10:29:39;;;;;;;25.50;13.73;;;;;;;13.00;58.18;94911.03;5063804;28;20454;-80
2021/01/06 10:32:27;;;;;;;41.33;19.60;;;;;;;12.64;59.81;94911.81;5096935;28;20450;-86
2021/01/06 10:35:23;;;;;;;21.10;14.03;;;;;;;12.18;61.73;94908.16;5096863;28;20442;-86
2021/01/06 10:37:49;;;;;;;25.90;14.27;;;;;;;11.76;62.64;94910.19;5097263;28;20447;-87
2021/01/06 10:40:20;;;;;;;16.60;11.17;;;;;;;11.46;63.04;94908.47;5102185;28;20456;-85
2021/01/06 10:42:48;;;;;;;23.20;12.50;;;;;;;11.30;64.99;94901.13;5111127;28;20431;-84
2021/01/06 10:45:36;;;;;;;26.63;15.23;;;;;;;11.10;64.67;94905.47;5099479;28;20513;-86
2021/01/06 10:48:03;;;;;;;27.30;14.40;;;;;;;10.96;65.34;94899.72;5096719;28;20475;-85
2021/01/06 10:50:46;;;;;;;25.20;14.80;;;;;;;10.93;66.54;94897.38;5096952;28;20846;-84
2021/01/06 10:53:24;;;;;;;38.73;17.70;;;;;;;10.88;66.47;94879.41;5096453;28;20439;-84
2021/01/06 10:55:55;;;;;;;29.40;19.23;;;;;;;10.84;66.42;94860.47;5096268;28;20514;-84
2021/01/06 10:58:41;;;;;;;64.03;30.87;;;;;;;10.74;67.92;94858.78;5095930;28;20500;-83
2021/01/06 11:01:57;;;;;;;32.93;16.70;;;;;;;11.11;85.97;94843.28;5013576;28;20447;-81
2021/01/06 11:05:03;;;;;;;4.27;3.90;;;;;;;11.06;61.25;94842.84;4974406;28;20459;-82
2021/01/06 11:07:51;;;;;;;9.20;3.10;;;;;;;11.12;58.92;94837.88;4917069;29;20498;-84
2021/01/06 11:10:53;;;;;;;10.57;4.77;;;;;;;11.23;58.22;94842.19;4917030;29;20974;-83
2021/01/06 11:13:31;;;;;;;5.17;2.80;;;;;;;11.30;56.93;94827.56;4917258;29;20447;-82
2021/01/06 11:16:05;;;;;;;5.05;3.80;;;;;;;11.42;56.55;94823.00;4916030;29;20450;-81
2021/01/06 11:18:45;;;;;;;6.47;5.87;;;;;;;11.51;56.33;94806.41;4916564;29;20203;-80
2021/01/06 11:21:17;;;;;;;12.70;10.97;;;;;;;11.58;57.14;94810.16;4916692;29;20490;-81
2021/01/06 11:24:02;;;;;;;4.30;3.60;;;;;;;11.61;56.27;94806.44;4916952;29;20855;-81
2021/01/06 11:26:51;;;;;;;9.93;2.83;;;;;;;11.67;56.70;94805.88;4916747;29;20579;-83
2021/01/06 11:29:34;;;;;;;8.43;5.40;;;;;;;11.74;56.09;94807.78;4916604;29;20463;-82
2021/01/06 11:32:37;;;;;;;5.30;4.00;;;;;;;11.89;56.56;94810.88;4842135;29;20455;-84
2021/01/06 11:35:30;;;;;;;8.57;4.67;;;;;;;11.85;56.12;94814.72;4862647;29;20456;-85
2021/01/06 11:37:58;;;;;;;5.90;5.40;;;;;;;11.95;56.43;94802.41;4907101;29;20455;-82
2021/01/06 11:40:55;;;;;;;11.37;6.80;;;;;;;12.14;55.70;94798.09;4954665;29;20446;-82
2021/01/06 11:43:34;;;;;;;6.67;3.50;;;;;;;12.28;55.67;94792.38;4993029;28;20993;-84
2021/01/06 11:46:14;;;;;;;3.60;2.90;;;;;;;12.50;54.21;94792.03;5013261;28;20970;-84
2021/01/06 11:48:44;;;;;;;11.80;2.60;;;;;;;12.66;53.49;94789.59;4980209;28;20443;-84
2021/01/06 11:51:21;;;;;;;2.57;2.37;;;;;;;12.81;52.93;94789.97;5013109;28;20443;-85
2021/01/06 11:54:01;;;;;;;5.40;3.93;;;;;;;12.94;52.21;94792.25;5012996;28;20453;-86
2021/01/06 11:56:35;;;;;;;2.93;2.60;;;;;;;13.03;52.85;94810.66;5012331;28;20482;-82
2021/01/06 11:59:22;;;;;;;2.33;2.13;;;;;;;13.13;51.95;94791.31;5012716;28;20446;-83
2021/01/06 12:02:02;;;;;;;4.40;2.23;;;;;;;13.19;52.22;94794.22;5012646;28;20441;-82
2021/01/06 12:05:04;;;;;;;3.93;2.00;;;;;;;13.19;51.45;94806.56;5012585;28;20503;-85
2021/01/06 12:07:35;;;;;;;5.00;2.30;;;;;;;13.24;51.51;94786.69;5012005;28;20487;-83
2021/01/06 12:10:19;;;;;;;3.23;2.53;;;;;;;13.32;51.22;94807.06;5080846;28;20455;-85
2021/01/06 12:13:16;;;;;;;3.83;2.13;;;;;;;13.28;51.10;94800.41;5047486;28;20455;-84
2021/01/06 12:16:07;;;;;;;3.20;2.60;;;;;;;13.27;50.61;94796.09;5094567;28;20588;-84
2021/01/06 12:19:11;;;;;;;4.87;2.00;;;;;;;13.31;50.47;94797.50;5094436;28;20437;-84